createdAt,value
2018-07-15T00:02:23.564Z,9.40
2018-07-15T00:04:52.278Z,9.50
2018-07-15T00:07:20.914Z,8.83
2018-07-15T00:09:49.538Z,8.87
2018-07-15T00:12:18.213Z,9.33
2018-07-15T00:14:46.865Z,9.47
2018-07-15T00:17:15.809Z,9.20
2018-07-15T00:19:44.983Z,9.27
2018-07-15T00:22:13.736Z,9.07
2018-07-15T00:24:42.520Z,8.90
2018-07-15T00:27:11.493Z,9.47
2018-07-15T00:29:41.244Z,8.90
2018-07-15T00:32:09.884Z,8.63
2018-07-15T00:34:38.653Z,8.70
2018-07-15T00:37:09.140Z,9.47
2018-07-15T00:39:39.069Z,9.47
2018-07-15T00:42:09.529Z,9.40
2018-07-15T00:44:38.532Z,9.87
2018-07-15T00:47:07.281Z,10.60
2018-07-15T00:49:35.981Z,9.93
2018-07-15T00:52:05.114Z,10.07
2018-07-15T00:54:34.241Z,9.40
2018-07-15T00:57:03.724Z,10.87
2018-07-15T00:59:32.852Z,10.33
2018-07-15T01:02:02.357Z,9.90
2018-07-15T01:04:33.947Z,9.33
2018-07-15T01:07:04.352Z,9.27
2018-07-15T01:09:33.035Z,9.47
2018-07-15T01:12:01.718Z,9.03
2018-07-15T01:14:30.384Z,8.67
2018-07-15T01:16:59.769Z,9.67
2018-07-15T01:19:28.539Z,9.97
2018-07-15T01:21:57.169Z,9.67
2018-07-15T01:24:25.841Z,9.27
2018-07-15T01:26:54.623Z,9.40
2018-07-15T01:29:23.607Z,8.63
2018-07-15T01:31:52.408Z,9.00
2018-07-15T01:34:25.001Z,10.10
2018-07-15T01:36:53.732Z,10.97
2018-07-15T01:39:22.387Z,9.23
2018-07-15T01:41:51.064Z,9.20
2018-07-15T01:44:19.768Z,9.30
2018-07-15T01:46:48.402Z,9.97
2018-07-15T01:49:17.039Z,9.77
2018-07-15T01:51:45.689Z,10.20
2018-07-15T01:54:14.384Z,10.33
2018-07-15T01:56:43.083Z,10.40
2018-07-15T01:59:11.713Z,11.23
2018-07-15T02:01:40.624Z,10.60
2018-07-15T02:04:09.273Z,9.90
2018-07-15T02:06:37.962Z,10.23
2018-07-15T02:09:06.657Z,10.97
2018-07-15T02:11:35.285Z,10.00
2018-07-15T02:14:03.917Z,10.63
2018-07-15T02:16:33.603Z,9.13
2018-07-15T02:19:02.249Z,9.50
2018-07-15T02:21:30.873Z,9.23
2018-07-15T02:23:59.561Z,9.63
2018-07-15T02:26:29.136Z,10.07
2018-07-15T02:28:57.756Z,10.23
2018-07-15T02:31:26.413Z,10.00
2018-07-15T02:33:54.728Z,9.90
2018-07-15T02:36:23.377Z,10.10
2018-07-15T02:38:52.048Z,9.33
2018-07-15T02:41:24.568Z,9.90
2018-07-15T02:43:53.228Z,9.50
2018-07-15T02:46:21.536Z,9.70
2018-07-15T02:48:50.210Z,9.97
2018-07-15T02:51:18.853Z,8.93
2018-07-15T02:53:47.502Z,9.60
2018-07-15T02:56:16.156Z,9.70
2018-07-15T02:58:44.797Z,8.63
2018-07-15T03:01:13.437Z,9.47
2018-07-15T03:03:42.089Z,9.13
2018-07-15T03:06:10.367Z,9.20
2018-07-15T03:08:39.028Z,8.03
2018-07-15T03:11:07.733Z,8.17
2018-07-15T03:13:36.424Z,6.50
2018-07-15T03:16:06.976Z,6.53
2018-07-15T03:18:36.613Z,10.10
2018-07-15T03:21:05.272Z,6.43
2018-07-15T03:23:33.957Z,6.13
2018-07-15T03:26:04.830Z,5.13
2018-07-15T03:28:33.512Z,4.97
2018-07-15T03:31:02.166Z,6.17
2018-07-15T03:33:30.807Z,3.73
2018-07-15T03:35:59.474Z,3.50
2018-07-15T03:38:28.108Z,4.93
2018-07-15T03:40:56.800Z,3.23
2018-07-15T03:43:25.484Z,3.67
2018-07-15T03:45:54.355Z,2.43
2018-07-15T03:48:22.647Z,3.10
2018-07-15T03:50:51.281Z,4.53
2018-07-15T03:53:19.902Z,2.70
2018-07-15T03:55:48.524Z,3.30
2018-07-15T03:58:17.167Z,2.50
2018-07-15T04:00:45.831Z,2.13
2018-07-15T04:03:14.557Z,2.13
2018-07-15T04:05:43.246Z,1.87
2018-07-15T04:08:12.848Z,2.50
2018-07-15T04:10:41.159Z,4.07
2018-07-15T04:13:09.799Z,2.93
2018-07-15T04:15:38.440Z,3.20
2018-07-15T04:18:07.247Z,2.63
2018-07-15T04:20:36.799Z,2.37
2018-07-15T04:23:06.134Z,3.23
2018-07-15T04:25:35.315Z,3.33
2018-07-15T04:28:04.433Z,4.20
2018-07-15T04:30:33.169Z,4.30
2018-07-15T04:33:01.493Z,3.57
2018-07-15T04:35:30.187Z,3.80
2018-07-15T04:37:58.848Z,2.93
2018-07-15T04:40:27.481Z,5.50
2018-07-15T04:42:56.146Z,3.37
2018-07-15T04:45:24.786Z,2.80
2018-07-15T04:47:53.508Z,4.43
2018-07-15T04:50:22.171Z,2.27
2018-07-15T04:52:50.837Z,5.80
2018-07-15T04:55:19.489Z,3.03
2018-07-15T04:57:48.137Z,4.03
2018-07-15T05:00:16.796Z,3.83
2018-07-15T05:02:45.437Z,3.30
2018-07-15T05:05:14.109Z,3.63
2018-07-15T05:07:42.772Z,4.17
2018-07-15T05:10:11.436Z,3.00
2018-07-15T05:12:40.077Z,5.80
2018-07-15T05:15:09.422Z,2.27
2018-07-15T05:17:38.086Z,2.80
2018-07-15T05:20:06.763Z,2.00
2018-07-15T05:22:35.400Z,2.80
2018-07-15T05:25:04.074Z,4.17
2018-07-15T05:27:32.787Z,3.27
2018-07-15T05:30:01.416Z,4.83
2018-07-15T05:32:30.050Z,2.70
2018-07-15T05:34:58.774Z,3.33
2018-07-15T05:37:27.458Z,2.47
2018-07-15T05:39:56.152Z,2.07
2018-07-15T05:42:24.824Z,2.07
2018-07-15T05:44:53.460Z,2.97
2018-07-15T05:47:22.097Z,2.23
2018-07-15T05:49:50.880Z,2.37
2018-07-15T05:52:19.549Z,2.93
2018-07-15T05:54:48.275Z,3.00
2018-07-15T05:57:17.382Z,2.93
2018-07-15T05:59:46.043Z,2.43
2018-07-15T06:02:14.708Z,2.33
2018-07-15T06:04:43.326Z,1.90
2018-07-15T06:07:11.975Z,1.83
2018-07-15T06:09:40.608Z,1.57
2018-07-15T06:12:09.311Z,1.77
2018-07-15T06:14:37.933Z,3.70
2018-07-15T06:17:06.691Z,3.00
2018-07-15T06:19:35.381Z,3.33
2018-07-15T06:22:07.157Z,1.40
2018-07-15T06:24:39.175Z,1.80
2018-07-15T06:27:11.853Z,2.60
2018-07-15T06:29:44.398Z,2.60
2018-07-15T06:32:15.511Z,1.47
2018-07-15T06:34:47.516Z,2.83
2018-07-15T06:37:17.189Z,1.83
2018-07-15T06:39:46.831Z,2.40
2018-07-15T06:42:18.072Z,1.63
2018-07-15T06:44:50.265Z,1.70
2018-07-15T06:47:21.800Z,3.03
2018-07-15T06:49:55.894Z,2.13
2018-07-15T06:52:27.860Z,1.83
2018-07-15T06:55:01.380Z,1.50
2018-07-15T06:57:41.216Z,3.33
2018-07-15T07:00:11.941Z,2.60
2018-07-15T07:02:43.180Z,2.40
2018-07-15T07:05:13.007Z,2.07
2018-07-15T07:07:42.808Z,2.53
2018-07-15T07:10:13.879Z,1.83
2018-07-15T07:12:44.514Z,2.37
2018-07-15T07:15:13.135Z,2.70
2018-07-15T07:17:42.984Z,1.87
2018-07-15T07:20:11.668Z,5.30
2018-07-15T07:22:40.323Z,2.40
2018-07-15T07:25:08.972Z,2.53
2018-07-15T07:27:37.632Z,1.97
2018-07-15T07:30:06.366Z,3.57
2018-07-15T07:32:35.036Z,2.00
2018-07-15T07:35:03.712Z,3.60
2018-07-15T07:37:32.397Z,3.10
2018-07-15T07:40:01.040Z,3.13
2018-07-15T07:42:29.710Z,2.30
2018-07-15T07:44:58.341Z,1.80
2018-07-15T07:47:27.037Z,2.07
2018-07-15T07:49:55.665Z,1.82
2018-07-15T07:52:24.360Z,1.50
2018-07-15T07:54:53.007Z,1.57
2018-07-15T07:57:21.632Z,1.70
2018-07-15T07:59:50.307Z,1.40
2018-07-15T08:02:18.966Z,2.10
2018-07-15T08:04:47.615Z,1.73
2018-07-15T08:07:16.300Z,1.50
2018-07-15T08:09:44.977Z,1.77
2018-07-15T08:12:13.595Z,1.77
2018-07-15T08:14:42.256Z,1.60
2018-07-15T08:17:10.901Z,2.33
2018-07-15T08:19:39.567Z,1.63
2018-07-15T08:22:08.652Z,2.37
2018-07-15T08:24:37.279Z,2.10
2018-07-15T08:27:06.082Z,5.87
2018-07-15T08:29:34.827Z,1.90
2018-07-15T08:32:03.509Z,1.83
2018-07-15T08:34:32.123Z,2.67
2018-07-15T08:37:00.813Z,2.60
2018-07-15T08:39:29.560Z,1.73
2018-07-15T08:41:58.232Z,3.50
2018-07-15T08:44:27.071Z,3.00
2018-07-15T08:46:55.700Z,2.50
2018-07-15T08:49:24.360Z,2.10
2018-07-15T08:51:53.043Z,2.60
2018-07-15T08:54:21.312Z,2.40
2018-07-15T08:56:50.026Z,2.57
2018-07-15T08:59:18.681Z,3.57
2018-07-15T09:01:47.329Z,4.40
2018-07-15T09:04:15.973Z,3.03
2018-07-15T09:06:44.580Z,2.80
2018-07-15T09:09:13.220Z,3.77
2018-07-15T09:11:41.856Z,2.90
2018-07-15T09:14:10.507Z,3.30
2018-07-15T09:16:39.145Z,2.83
2018-07-15T09:19:07.805Z,2.90
2018-07-15T09:21:36.458Z,5.27
2018-07-15T09:24:05.113Z,3.97
2018-07-15T09:26:33.743Z,2.90
2018-07-15T09:29:02.400Z,4.07
2018-07-15T09:31:31.064Z,3.23
2018-07-15T09:33:59.704Z,3.57
2018-07-15T09:36:29.671Z,4.30
2018-07-15T09:38:58.344Z,5.13
2018-07-15T09:41:27.456Z,3.33
2018-07-15T09:43:56.412Z,2.73
2018-07-15T09:46:34.930Z,3.33
2018-07-15T09:49:22.352Z,3.00
2018-07-15T09:51:51.369Z,2.67
2018-07-15T09:54:22.090Z,3.57
2018-07-15T09:56:50.881Z,4.30
2018-07-15T09:59:21.020Z,2.97
2018-07-15T10:01:49.764Z,3.30
2018-07-15T10:04:18.412Z,3.97
2018-07-15T10:06:47.096Z,3.23
2018-07-15T10:09:18.173Z,3.33
2018-07-15T10:11:55.056Z,2.40
2018-07-15T10:14:24.765Z,4.03
2018-07-15T10:16:54.418Z,5.70
2018-07-15T10:19:25.931Z,3.47
2018-07-15T10:21:54.600Z,3.33
2018-07-15T10:24:25.784Z,3.25
2018-07-15T10:26:56.217Z,3.43
2018-07-15T10:29:25.956Z,3.20
2018-07-15T10:31:55.722Z,4.30
2018-07-15T10:34:24.367Z,3.02
2018-07-15T10:36:54.280Z,3.40
2018-07-15T10:39:28.123Z,5.05
2018-07-15T10:41:57.153Z,4.33
2018-07-15T10:44:25.788Z,5.08
2018-07-15T10:46:54.424Z,2.90
2018-07-15T10:49:23.060Z,3.47
2018-07-15T10:51:51.720Z,3.70
2018-07-15T10:54:20.411Z,3.33
2018-07-15T10:56:49.060Z,4.85
2018-07-15T10:59:17.703Z,3.30
2018-07-15T11:01:47.158Z,2.90
2018-07-15T11:04:15.776Z,3.37
2018-07-15T11:06:44.438Z,3.10
2018-07-15T11:09:13.074Z,4.37
2018-07-15T11:11:41.676Z,3.02
2018-07-15T11:14:14.055Z,3.30
2018-07-15T11:16:43.519Z,3.33
2018-07-15T11:19:19.072Z,3.92
2018-07-15T11:21:49.292Z,4.00
2018-07-15T11:24:21.284Z,3.02
2018-07-15T11:26:54.223Z,4.10
2018-07-15T11:29:24.874Z,3.42
2018-07-15T11:31:56.220Z,4.60
2018-07-15T11:34:25.211Z,3.55
2018-07-15T11:36:54.220Z,2.95
2018-07-15T11:39:25.142Z,3.55
2018-07-15T11:41:54.806Z,3.20
2018-07-15T11:44:26.615Z,3.33
2018-07-15T11:46:59.741Z,3.37
2018-07-15T11:49:31.244Z,4.10
2018-07-15T11:52:00.588Z,3.85
2018-07-15T11:54:33.774Z,4.72
2018-07-15T11:57:04.313Z,3.83
2018-07-15T11:59:36.044Z,3.33
2018-07-15T12:02:05.146Z,2.95
2018-07-15T12:04:36.493Z,3.65
2018-07-15T12:07:06.965Z,3.70
2018-07-15T12:09:35.468Z,3.67
2018-07-15T12:12:06.553Z,3.35
2018-07-15T12:14:35.543Z,2.98
2018-07-15T12:17:06.852Z,3.58
2018-07-15T12:19:36.784Z,5.72
2018-07-15T12:22:06.720Z,3.65
2018-07-15T12:24:35.435Z,3.58
2018-07-15T12:27:04.099Z,3.37
2018-07-15T12:29:34.352Z,2.95
2018-07-15T12:32:04.395Z,3.60
2018-07-15T12:34:33.060Z,3.15
2018-07-15T12:37:05.589Z,3.37
2018-07-15T12:39:34.336Z,5.30
2018-07-15T12:42:03.434Z,2.92
2018-07-15T12:44:33.215Z,3.67
2018-07-15T12:47:02.911Z,4.17
2018-07-15T12:49:31.824Z,3.17
2018-07-15T12:52:04.959Z,3.00
2018-07-15T12:54:39.952Z,3.47
2018-07-15T12:57:10.050Z,3.52
2018-07-15T12:59:38.664Z,3.42
2018-07-15T13:02:10.256Z,3.20
2018-07-15T13:04:46.264Z,3.58
2018-07-15T13:07:17.230Z,3.35
2018-07-15T13:09:47.604Z,3.70
2018-07-15T13:12:16.288Z,3.33
2018-07-15T13:14:45.100Z,3.37
2018-07-15T13:17:13.768Z,4.12
2018-07-15T13:19:42.400Z,3.10
2018-07-15T13:22:11.128Z,3.02
2018-07-15T13:24:39.766Z,6.78
2018-07-15T13:27:08.414Z,4.08
2018-07-15T13:29:37.114Z,3.35
2018-07-15T13:32:05.984Z,2.80
2018-07-15T13:34:34.599Z,3.52
2018-07-15T13:37:03.288Z,4.37
2018-07-15T13:39:31.900Z,4.03
2018-07-15T13:42:00.564Z,3.30
2018-07-15T13:44:29.257Z,4.20
2018-07-15T13:46:57.887Z,2.98
2018-07-15T13:49:26.516Z,4.47
2018-07-15T13:51:55.124Z,5.40
2018-07-15T13:54:23.745Z,3.17
2018-07-15T13:56:52.336Z,3.83
2018-07-15T13:59:20.952Z,3.12
2018-07-15T14:01:49.550Z,3.77
2018-07-15T14:04:18.189Z,8.10
2018-07-15T14:06:46.825Z,3.77
2018-07-15T14:09:15.545Z,3.67
2018-07-15T14:11:44.201Z,3.52
2018-07-15T14:14:13.130Z,4.62
2018-07-15T14:16:46.903Z,3.37
2018-07-15T14:19:15.744Z,3.72
2018-07-15T14:21:44.395Z,3.58
2018-07-15T14:24:13.371Z,2.70
2018-07-15T14:26:42.383Z,2.85
2018-07-15T14:29:11.364Z,6.28
2018-07-15T14:31:41.037Z,3.95
2018-07-15T14:34:10.027Z,3.95
2018-07-15T14:36:48.604Z,2.83
2018-07-15T14:39:20.240Z,2.77
2018-07-15T14:41:53.856Z,2.62
2018-07-15T14:44:29.798Z,3.27
2018-07-15T14:47:02.048Z,3.77
2018-07-15T14:49:31.472Z,3.83
2018-07-15T14:52:01.880Z,4.25
2018-07-15T14:54:30.622Z,2.70
2018-07-15T14:56:59.356Z,2.40
2018-07-15T14:59:27.968Z,2.62
2018-07-15T15:02:04.413Z,4.25
2018-07-15T15:04:36.925Z,3.05
2018-07-15T15:07:12.382Z,3.95
2018-07-15T15:09:42.856Z,4.03
2018-07-15T15:12:12.377Z,2.55
2018-07-15T15:14:41.803Z,2.50
2018-07-15T15:17:10.854Z,2.33
2018-07-15T15:19:40.168Z,3.12
2018-07-15T15:22:09.418Z,3.33
2018-07-15T15:24:38.264Z,2.80
2018-07-15T15:27:06.941Z,3.62
2018-07-15T15:29:35.662Z,4.22
2018-07-15T15:32:04.764Z,4.25
2018-07-15T15:34:33.515Z,3.08
2018-07-15T15:37:02.865Z,6.37
2018-07-15T15:39:33.450Z,3.90
2018-07-15T15:42:03.002Z,3.58
2018-07-15T15:44:32.079Z,2.60
2018-07-15T15:47:01.482Z,2.50
2018-07-15T15:49:30.285Z,5.75
2018-07-15T15:51:59.099Z,6.22
2018-07-15T15:54:33.126Z,5.25
2018-07-15T15:57:02.122Z,2.70
2018-07-15T15:59:31.554Z,2.98
2018-07-15T16:02:00.488Z,3.35
2018-07-15T16:04:29.319Z,2.50
2018-07-15T16:06:58.169Z,3.10
2018-07-15T16:09:28.003Z,3.85
2018-07-15T16:11:57.089Z,3.40
2018-07-15T16:14:28.933Z,2.62
2018-07-15T16:17:01.677Z,3.02
2018-07-15T16:19:37.000Z,3.55
2018-07-15T16:22:06.988Z,3.20
2018-07-15T16:24:37.039Z,5.33
2018-07-15T16:27:08.787Z,2.92
2018-07-15T16:29:42.892Z,5.20
2018-07-15T16:32:16.685Z,2.30
2018-07-15T16:34:48.219Z,2.80
2018-07-15T16:37:19.844Z,4.25
2018-07-15T16:39:50.966Z,3.22
2018-07-15T16:42:22.049Z,3.30
2018-07-15T16:44:54.579Z,3.87
2018-07-15T16:47:25.093Z,3.00
2018-07-15T16:49:56.106Z,2.70
2018-07-15T16:52:27.630Z,3.52
2018-07-15T16:55:03.440Z,9.60
2018-07-15T16:57:33.459Z,2.63
2018-07-15T17:00:08.548Z,2.98
2018-07-15T17:02:45.989Z,3.55
2018-07-15T17:05:17.861Z,3.13
2018-07-15T17:07:49.455Z,3.63
2018-07-15T17:10:18.511Z,5.10
2018-07-15T17:12:49.033Z,2.97
2018-07-15T17:15:29.088Z,3.53
2018-07-15T17:17:58.331Z,5.17
2018-07-15T17:20:27.139Z,3.83
2018-07-15T17:22:56.756Z,3.13
2018-07-15T17:25:25.651Z,5.00
2018-07-15T17:27:59.012Z,3.53
2018-07-15T17:30:32.488Z,3.13
2018-07-15T17:33:10.720Z,3.33
2018-07-15T17:35:48.612Z,3.47
2018-07-15T17:38:17.380Z,3.97
2018-07-15T17:40:48.206Z,3.50
2018-07-15T17:43:16.912Z,5.07
2018-07-15T17:45:45.320Z,6.10
2018-07-15T17:48:14.036Z,2.67
2018-07-15T17:50:42.681Z,3.63
2018-07-15T17:53:11.332Z,3.80
2018-07-15T17:55:40.021Z,3.40
2018-07-15T17:58:08.656Z,3.00
2018-07-15T18:00:37.336Z,6.47
2018-07-15T18:03:06.019Z,3.67
2018-07-15T18:05:34.636Z,5.47
2018-07-15T18:08:03.256Z,5.53
2018-07-15T18:10:31.929Z,4.20
2018-07-15T18:13:00.647Z,4.67
2018-07-15T18:15:29.279Z,5.53
2018-07-15T18:17:57.916Z,3.33
2018-07-15T18:20:26.536Z,3.50
2018-07-15T18:22:55.176Z,6.43
2018-07-15T18:25:23.816Z,4.50
2018-07-15T18:27:52.492Z,3.37
2018-07-15T18:30:21.114Z,3.73
2018-07-15T18:32:50.748Z,5.00
2018-07-15T18:35:19.439Z,4.20
2018-07-15T18:40:22.458Z,4.97
2018-07-15T18:42:54.562Z,6.37
2018-07-15T18:45:23.220Z,7.67
2018-07-15T18:47:57.164Z,10.37
2018-07-15T18:50:29.373Z,6.13
2018-07-15T18:52:59.657Z,6.37
2018-07-15T18:55:28.538Z,4.37
2018-07-15T18:57:57.212Z,5.43
2018-07-15T19:00:25.868Z,5.13
2018-07-15T19:02:54.507Z,4.67
2018-07-15T19:05:24.195Z,5.00
2018-07-15T19:07:53.488Z,35.80
2018-07-15T19:10:23.593Z,23.83
2018-07-15T19:12:52.227Z,29.70
2018-07-15T19:15:20.851Z,6.37
2018-07-15T19:17:49.544Z,6.93
2018-07-15T19:20:23.508Z,7.47
2018-07-15T19:22:54.278Z,15.53
2018-07-15T19:25:22.948Z,8.43
2018-07-15T19:27:51.854Z,6.50
2018-07-15T19:30:21.137Z,6.80
2018-07-15T19:32:52.851Z,7.17
2018-07-15T19:35:23.912Z,41.90
2018-07-15T19:37:56.904Z,11.17
2018-07-15T19:40:34.128Z,9.50
2018-07-15T19:43:06.214Z,8.43
2018-07-15T19:45:35.820Z,8.67
2018-07-15T19:48:04.561Z,9.23
2018-07-15T19:50:33.179Z,9.90
2018-07-15T19:53:01.847Z,9.70
2018-07-15T19:55:30.475Z,7.60
2018-07-15T19:57:59.119Z,7.33
2018-07-15T20:00:27.752Z,9.40
2018-07-15T20:02:56.369Z,7.63
2018-07-15T20:05:25.008Z,8.20
2018-07-15T20:07:54.688Z,7.70
2018-07-15T20:10:24.500Z,10.37
2018-07-15T20:12:53.176Z,8.67
2018-07-15T20:45:03.261Z,13.43
2018-07-15T20:47:31.940Z,10.10
2018-07-15T20:50:00.583Z,10.30
2018-07-15T20:52:29.251Z,9.97
2018-07-15T20:54:57.909Z,9.80
2018-07-15T20:57:26.551Z,9.57
2018-07-15T20:59:55.176Z,10.30
2018-07-15T21:02:23.834Z,10.33
2018-07-15T21:04:52.472Z,10.00
2018-07-15T21:07:21.132Z,11.37
2018-07-15T21:09:49.793Z,10.50
2018-07-15T21:12:18.396Z,10.23
2018-07-15T21:14:47.088Z,11.00
2018-07-15T21:17:15.691Z,10.27
2018-07-15T21:19:44.307Z,10.63
2018-07-15T21:22:12.957Z,9.57
2018-07-15T21:24:41.742Z,10.17
2018-07-15T21:27:10.376Z,10.20
2018-07-15T21:29:39.020Z,9.50
2018-07-15T21:32:07.671Z,10.30
2018-07-15T21:34:36.286Z,9.57
2018-07-15T21:37:04.571Z,9.73
2018-07-15T21:39:33.179Z,10.10
2018-07-15T21:42:01.816Z,10.10
2018-07-15T21:44:30.524Z,10.00
2018-07-15T21:46:59.181Z,12.70
2018-07-15T21:49:27.896Z,11.33
2018-07-15T21:51:56.541Z,10.17
2018-07-15T21:54:25.279Z,9.70
2018-07-15T21:56:53.892Z,9.57
2018-07-15T21:59:22.883Z,10.33
2018-07-15T22:01:51.523Z,10.13
2018-07-15T22:04:20.256Z,10.27
2018-07-15T22:06:59.900Z,10.03
2018-07-15T22:09:53.256Z,10.63
2018-07-15T22:12:22.040Z,10.27
2018-07-15T22:14:50.762Z,11.00
2018-07-15T22:17:19.635Z,11.30
2018-07-15T22:19:48.276Z,11.73
2018-07-15T22:22:17.123Z,11.93
2018-07-15T22:24:45.795Z,11.17
2018-07-15T22:27:14.493Z,10.97
2018-07-15T22:29:43.127Z,11.20
2018-07-15T22:32:11.881Z,10.87
2018-07-15T22:34:40.571Z,10.90
2018-07-15T22:37:09.282Z,11.13
2018-07-15T22:39:37.969Z,11.60
2018-07-15T22:42:06.695Z,11.63
2018-07-15T22:44:35.336Z,11.13
2018-07-15T22:47:04.006Z,10.60
2018-07-15T22:49:32.648Z,11.60
2018-07-15T22:52:01.324Z,11.23
2018-07-15T22:54:30.065Z,11.30
2018-07-15T22:56:58.764Z,10.40
2018-07-15T22:59:27.408Z,11.40
2018-07-15T23:01:56.073Z,10.57
2018-07-15T23:04:35.416Z,10.67
2018-07-15T23:07:04.060Z,10.90
2018-07-15T23:09:32.688Z,10.77
2018-07-15T23:12:01.372Z,10.90
2018-07-15T23:14:30.050Z,11.20
2018-07-15T23:16:58.715Z,9.90
2018-07-15T23:19:27.376Z,10.33
2018-07-15T23:21:56.020Z,10.80
2018-07-15T23:24:24.662Z,9.87
2018-07-15T23:26:53.308Z,11.30
2018-07-15T23:29:21.960Z,10.43
2018-07-15T23:31:50.605Z,10.63
2018-07-15T23:34:18.858Z,11.37
2018-07-15T23:36:47.512Z,10.90
2018-07-15T23:39:16.146Z,10.47
2018-07-15T23:41:44.799Z,10.47
2018-07-15T23:44:13.456Z,11.27
2018-07-15T23:46:42.092Z,10.57
2018-07-15T23:49:10.350Z,11.07
2018-07-15T23:51:39.092Z,11.53
2018-07-15T23:54:07.720Z,11.10
2018-07-15T23:56:36.354Z,10.00
2018-07-15T23:59:05.013Z,10.33
